Time;durP1;ratioP1;P1;durP2;ratioP2;P2;SDS_P1;SDS_P2;PMS_P1;PMS_P2;Temp;Humidity;BMP_temperature;BMP_pressure;BME280_temperature;BME280_humidity;BME280_pressure;Samples;Min_cycle;Max_cycle;Signal;HPM_P1;HPM_P2
2023/09/11 00:04:22;;;;;;;15.45;5.57;;;;;;;19.69;70.64;99104.50;7289376;39;20261;31
2023/09/11 00:09:58;;;;;;;9.30;5.20;;;;;;;19.61;70.57;99087.56;7254565;39;20481;31
2023/09/11 00:20:23;;;;;;;10.73;5.72;;;;;;;19.32;71.35;99078.16;7285761;39;20332;31
2023/09/11 00:25:58;;;;;;;11.80;5.90;;;;;;;19.10;72.56;99082.38;7317751;39;20250;31
2023/09/11 00:31:17;;;;;;;11.77;5.90;;;;;;;19.00;72.65;99087.53;7369076;39;20347;31
2023/09/11 00:36:38;;;;;;;13.85;5.85;;;;;;;18.98;72.44;99075.97;7338423;39;20265;31
2023/09/11 00:42:12;;;;;;;14.10;5.60;;;;;;;18.94;73.04;99069.28;7331883;39;20478;31
2023/09/11 00:47:46;;;;;;;8.80;5.25;;;;;;;19.02;72.84;99069.00;7345371;39;20271;31
2023/09/11 00:53:22;;;;;;;9.73;5.40;;;;;;;19.05;72.29;99065.81;7319146;39;20272;31
2023/09/11 00:58:55;;;;;;;8.00;5.37;;;;;;;18.99;73.66;99058.53;7360823;39;20251;31
2023/09/11 01:04:30;;;;;;;10.77;5.37;;;;;;;18.75;73.29;99055.56;7319820;39;20259;31
2023/09/11 01:10:21;;;;;;;11.97;5.60;;;;;;;18.75;73.56;99047.38;7318815;39;20336;31
2023/09/11 01:16:01;;;;;;;8.45;5.20;;;;;;;18.86;74.04;99049.41;7317062;39;20244;31
2023/09/11 01:21:47;;;;;;;7.90;5.50;;;;;;;18.83;74.40;99046.25;7258226;40;20261;31
2023/09/11 01:27:28;;;;;;;11.73;5.60;;;;;;;18.89;74.18;99046.22;7302385;39;20241;31
2023/09/11 01:33:08;;;;;;;11.10;5.60;;;;;;;18.88;73.75;99044.53;7316167;39;20275;31
2023/09/11 01:38:45;;;;;;;11.10;5.65;;;;;;;18.73;74.85;99044.03;7298499;39;20264;31
2023/09/11 01:44:21;;;;;;;12.88;5.30;;;;;;;18.63;75.48;99048.31;7300258;39;20360;31
2023/09/11 01:49:55;;;;;;;13.27;5.70;;;;;;;18.76;74.84;99051.78;7289326;39;20238;31
2023/09/11 01:55:30;;;;;;;10.10;5.40;;;;;;;18.87;74.48;99039.28;7265374;40;20303;31
2023/09/11 02:07:06;;;;;;;10.00;5.50;;;;;;;18.60;75.14;99048.78;7325302;39;21259;31
2023/09/11 02:12:41;;;;;;;9.10;5.25;;;;;;;18.55;74.43;99043.13;7271781;40;20687;31
2023/09/11 02:23:23;;;;;;;10.30;5.85;;;;;;;18.61;74.38;99043.06;7340564;39;20562;31
2023/09/11 02:28:59;;;;;;;12.97;5.97;;;;;;;18.64;73.68;99039.91;7346649;39;20247;31
2023/09/11 02:34:19;;;;;;;12.20;5.60;;;;;;;18.68;73.48;99041.16;7318451;39;20373;31
2023/09/11 02:39:55;;;;;;;11.35;5.85;;;;;;;18.72;73.40;99044.25;7384591;39;20565;31
2023/09/11 02:45:15;;;;;;;12.30;5.57;;;;;;;18.65;74.48;99047.03;7352171;39;20244;31
2023/09/11 02:50:48;;;;;;;10.27;5.37;;;;;;;18.42;75.07;99050.34;7342159;39;20298;31
2023/09/11 02:56:26;;;;;;;9.18;5.43;;;;;;;18.37;75.55;99041.13;7287577;40;20241;31
2023/09/11 03:02:01;;;;;;;6.60;4.90;;;;;;;18.31;75.19;99036.53;7281372;39;20364;31
2023/09/11 03:07:20;;;;;;;9.17;5.60;;;;;;;18.23;75.31;99036.81;7228890;40;21830;31
2023/09/11 03:12:58;;;;;;;10.00;5.70;;;;;;;18.27;74.98;99032.59;7257181;40;20259;31
2023/09/11 03:18:28;;;;;;;;;;;;;;;;;;;;;
2023/09/11 03:23:52;;;;;;;9.50;5.50;;;;;;;18.18;75.81;99042.94;7289662;39;20338;31
2023/09/11 03:34:32;;;;;;;10.50;6.17;;;;;;;18.27;75.17;99035.31;7311740;39;20278;31
2023/09/11 03:45:15;;;;;;;7.83;5.27;;;;;;;18.37;74.45;99041.13;7368454;39;21387;31
2023/09/11 03:50:46;;;;;;;10.10;5.17;;;;;;;18.37;74.84;99031.06;7170050;39;20309;31
2023/09/11 04:01:11;;;;;;;8.90;5.10;;;;;;;18.28;74.70;99023.34;7338077;39;20635;31
2023/09/11 04:11:50;;;;;;;8.25;5.10;;;;;;;18.13;74.16;99020.91;7369109;39;20330;31
2023/09/11 04:17:25;;;;;;;6.97;5.93;;;;;;;17.95;74.91;99020.81;7340274;39;20359;31
2023/09/11 04:28:20;;;;;;;9.43;5.80;;;;;;;17.96;74.45;99023.31;7300062;39;21209;31
2023/09/11 04:33:55;;;;;;;9.60;5.50;;;;;;;17.91;74.77;99020.41;7276640;39;20280;31
2023/09/11 04:39:15;;;;;;;10.50;6.20;;;;;;;17.99;74.36;99031.06;7228627;40;20268;31
2023/09/11 04:44:58;;;;;;;9.85;5.75;;;;;;;17.97;74.56;99022.28;7296264;39;20789;31
2023/09/11 04:50:11;;;;;;;9.00;5.00;;;;;;;18.09;74.09;99029.75;7227818;40;20943;31
2023/09/11 04:55:51;;;;;;;11.07;5.10;;;;;;;18.03;74.21;99024.13;7324158;39;20262;31
2023/09/11 05:01:27;;;;;;;10.80;6.20;;;;;;;18.07;73.68;99030.00;7376253;39;20363;31
2023/09/11 05:07:06;;;;;;;12.40;5.83;;;;;;;17.77;74.81;99026.97;7269348;40;20227;31
2023/09/11 05:12:28;;;;;;;8.53;5.77;;;;;;;17.54;75.20;99045.72;7207565;40;20304;31
2023/09/11 05:18:04;;;;;;;13.80;6.50;;;;;;;17.46;75.73;99041.31;7274955;40;20249;31
2023/09/11 05:23:42;;;;;;;12.40;5.60;;;;;;;17.70;74.92;99041.69;7305932;39;20308;31
2023/09/11 05:28:59;;;;;;;13.90;5.80;;;;;;;17.96;74.41;99045.16;7336275;39;20299;31
2023/09/11 05:34:35;;;;;;;9.40;5.95;;;;;;;18.03;74.49;99036.94;7296584;39;20252;31
2023/09/11 05:39:55;;;;;;;10.50;5.80;;;;;;;17.97;74.38;99038.66;7290032;39;20427;31
2023/09/11 05:45:16;;;;;;;9.50;6.23;;;;;;;17.99;75.46;99044.69;7293614;39;20840;31
2023/09/11 05:50:52;;;;;;;10.40;6.40;;;;;;;18.12;75.57;99042.97;7364881;39;20244;31
2023/09/11 05:56:27;;;;;;;10.97;6.47;;;;;;;18.27;75.38;99052.53;7307263;39;20267;31
2023/09/11 06:02:02;;;;;;;9.95;6.10;;;;;;;18.29;75.92;99046.84;7253922;39;20262;31
2023/09/11 06:07:36;;;;;;;9.17;6.30;;;;;;;18.35;76.11;99051.41;7306689;39;20244;31
2023/09/11 06:12:57;;;;;;;10.23;5.87;;;;;;;18.42;75.81;99060.41;7262568;40;20351;31
2023/09/11 06:18:17;;;;;;;12.50;6.40;;;;;;;18.48;77.00;99056.78;7309634;39;20268;31
2023/09/11 06:23:53;;;;;;;10.60;5.80;;;;;;;18.63;76.36;99054.63;7339491;39;20369;31
2023/09/11 06:29:15;;;;;;;10.30;6.30;;;;;;;18.91;76.31;99065.13;7342475;39;20335;31
2023/09/11 06:34:52;;;;;;;11.90;6.10;;;;;;;19.08;75.59;99063.50;7319818;39;20249;31
2023/09/11 06:40:29;;;;;;;13.00;5.75;;;;;;;19.28;76.46;99055.91;7302942;39;20327;31
2023/09/11 06:46:06;;;;;;;9.27;5.83;;;;;;;19.51;75.87;99052.56;7296067;39;20332;31
2023/09/11 06:51:44;;;;;;;12.07;6.22;;;;;;;19.69;74.17;99052.56;7301257;39;20264;31
2023/09/11 06:57:21;;;;;;;10.77;6.22;;;;;;;19.97;75.81;99048.37;7197270;40;20278;31
2023/09/11 07:02:56;;;;;;;11.60;6.30;;;;;;;20.18;75.29;99045.19;7223782;40;20369;31
2023/09/11 07:08:31;;;;;;;13.02;6.45;;;;;;;20.39;76.02;99038.38;7237803;40;20261;31
2023/09/11 07:14:12;;;;;;;8.45;5.32;;;;;;;20.59;74.53;99037.00;7221147;40;20361;31
2023/09/11 07:19:28;;;;;;;12.80;6.37;;;;;;;20.88;74.05;99043.47;7247975;39;20348;31
2023/09/11 07:25:03;;;;;;;11.00;5.90;;;;;;;21.06;72.74;99050.75;7266441;39;20322;31
2023/09/11 07:30:39;;;;;;;9.25;5.70;;;;;;;21.27;72.02;99047.44;7270705;39;20259;31
2023/09/11 07:36:14;;;;;;;17.50;6.37;;;;;;;21.42;70.63;99053.25;7314883;39;20654;31
2023/09/11 07:41:50;;;;;;;9.80;5.87;;;;;;;21.59;69.67;99059.69;7297197;39;20380;31
2023/09/11 07:52:29;;;;;;;9.00;5.78;;;;;;;21.89;68.96;99059.53;7343522;39;20267;31
2023/09/11 07:58:05;;;;;;;10.30;6.70;;;;;;;22.06;69.71;99058.78;7314294;39;20582;31
2023/09/11 08:03:22;;;;;;;9.05;6.60;;;;;;;22.29;69.26;99067.72;7319301;39;20251;31
2023/09/11 08:09:03;;;;;;;14.40;7.12;;;;;;;22.41;68.97;99065.78;7318862;39;20275;31
2023/09/11 08:14:21;;;;;;;10.45;6.90;;;;;;;22.59;68.09;99077.66;7329870;39;20254;31
2023/09/11 08:19:54;;;;;;;11.30;7.40;;;;;;;22.77;69.11;99075.50;7350185;39;20247;31
2023/09/11 08:25:28;;;;;;;12.50;7.10;;;;;;;22.96;67.88;99073.38;7340075;39;20243;31
2023/09/11 08:30:50;;;;;;;12.20;6.60;;;;;;;23.10;68.11;99073.88;7316916;39;20249;31
2023/09/11 08:36:09;;;;;;;9.98;6.56;;;;;;;23.33;68.15;99073.69;7323238;39;20244;31
2023/09/11 08:41:46;;;;;;;10.38;7.00;;;;;;;23.52;67.25;99071.53;7384749;39;20262;31
2023/09/11 08:47:28;;;;;;;12.37;6.30;;;;;;;23.68;67.10;99076.16;7382166;39;21398;31
2023/09/11 08:53:04;;;;;;;13.20;6.93;;;;;;;23.89;65.50;99069.81;7263634;40;21126;31
2023/09/11 08:58:42;;;;;;;10.60;6.85;;;;;;;24.06;64.59;99067.00;7233368;40;20423;31
2023/09/11 09:04:17;;;;;;;10.44;7.08;;;;;;;24.16;65.26;99068.00;7226454;40;20288;31
2023/09/11 09:14:58;;;;;;;9.50;6.65;;;;;;;24.51;64.77;99058.44;7308447;39;21024;31
2023/09/11 09:20:33;;;;;;;9.68;7.47;;;;;;;24.69;62.88;99061.66;7334883;39;20251;31
2023/09/11 09:26:11;;;;;;;11.67;6.10;;;;;;;24.85;63.47;99057.13;7364744;39;20243;31
2023/09/11 09:31:47;;;;;;;9.23;6.18;;;;;;;25.08;62.67;99054.03;7404558;39;20242;31
2023/09/11 09:37:07;;;;;;;15.35;7.07;;;;;;;25.33;60.33;99055.31;7329429;39;20255;31
2023/09/11 09:42:41;;;;;;;12.45;6.70;;;;;;;25.49;59.61;99046.84;7298426;39;20244;31
2023/09/11 09:48:23;;;;;;;11.28;6.92;;;;;;;25.63;59.89;99043.63;7319286;39;20318;31
2023/09/11 09:53:46;;;;;;;10.45;6.60;;;;;;;25.87;59.32;99048.47;7291143;39;20255;31
2023/09/11 09:59:22;;;;;;;14.55;7.15;;;;;;;26.03;59.59;99047.44;7337833;39;20424;31
2023/09/11 10:04:58;;;;;;;16.83;7.18;;;;;;;26.28;58.26;99029.31;7266594;39;20234;31
2023/09/11 10:10:35;;;;;;;9.73;6.37;;;;;;;26.47;57.33;99016.59;7277859;39;20264;31
2023/09/11 10:16:11;;;;;;;10.55;6.70;;;;;;;26.66;57.44;99009.47;7249154;40;20265;31
2023/09/11 10:21:47;;;;;;;10.35;6.45;;;;;;;26.89;56.30;99008.94;7229771;40;20261;31
2023/09/11 10:27:23;;;;;;;13.38;6.47;;;;;;;27.18;55.63;99005.56;7252337;40;20878;31
2023/09/11 10:32:59;;;;;;;9.85;6.87;;;;;;;27.39;56.26;99000.81;7035944;40;20253;31
2023/09/11 10:38:31;;;;;;;11.85;6.70;;;;;;;27.54;54.81;99004.44;7214031;40;20269;31
2023/09/11 10:44:03;;;;;;;12.52;6.10;;;;;;;27.71;55.91;98993.84;7250103;40;20577;31
2023/09/11 10:49:40;;;;;;;11.03;6.78;;;;;;;27.82;54.80;98997.38;7270062;40;20579;31
2023/09/11 10:55:14;;;;;;;11.02;6.35;;;;;;;27.97;53.13;98989.00;7327777;39;20260;31
2023/09/11 11:00:51;;;;;;;9.15;6.70;;;;;;;28.22;54.14;98988.06;7327714;39;20742;31
2023/09/11 11:06:27;;;;;;;15.27;6.65;;;;;;;28.45;53.19;98979.03;7280495;39;20264;31
2023/09/11 11:12:08;;;;;;;9.30;6.60;;;;;;;28.64;53.00;98980.00;7256991;40;20249;31
2023/09/11 11:17:46;;;;;;;9.38;6.18;;;;;;;28.79;53.78;98970.75;7253255;39;20319;31
2023/09/11 11:23:09;;;;;;;9.90;6.30;;;;;;;29.00;51.90;98965.84;7224713;40;20265;31
2023/09/11 11:28:54;;;;;;;8.90;5.55;;;;;;;29.13;51.07;98967.94;7328726;39;20255;31
2023/09/11 11:34:28;;;;;;;10.98;6.15;;;;;;;29.17;51.43;98955.13;7321343;39;20267;31
2023/09/11 11:40:04;;;;;;;6.20;5.50;;;;;;;29.31;51.58;98950.53;7299955;39;20261;31
2023/09/11 11:45:38;;;;;;;8.40;5.72;;;;;;;29.48;49.79;98952.88;7256972;40;20320;31
2023/09/11 11:50:58;;;;;;;8.30;5.10;;;;;;;29.48;49.18;98947.31;7310133;39;20279;31
2023/09/11 12:01:40;;;;;;;9.68;5.50;;;;;;;29.82;48.98;98936.03;7302672;39;20633;31
2023/09/11 12:12:20;;;;;;;7.70;5.03;;;;;;;30.07;49.05;98926.53;7384555;39;20685;31
2023/09/11 12:18:00;;;;;;;8.07;5.53;;;;;;;30.20;48.34;98923.81;7280319;39;20292;31
2023/09/11 12:23:40;;;;;;;5.90;4.75;;;;;;;30.45;48.34;98919.84;7279636;40;20248;31
2023/09/11 12:29:12;;;;;;;8.20;5.30;;;;;;;30.53;46.79;98926.69;7261487;40;20564;31
2023/09/11 12:34:59;;;;;;;8.65;4.93;;;;;;;30.65;47.53;98921.47;7288747;39;21594;31
2023/09/11 12:40:34;;;;;;;8.80;5.05;;;;;;;30.76;46.86;98917.38;7304428;39;20319;31
2023/09/11 12:46:09;;;;;;;10.70;5.50;;;;;;;30.97;46.41;98915.88;7198221;40;20442;31
2023/09/11 12:51:46;;;;;;;7.03;5.03;;;;;;;31.04;46.69;98909.91;7256137;40;20466;31
2023/09/11 12:57:22;;;;;;;8.55;4.80;;;;;;;31.18;46.35;98903.25;7282502;39;20264;31
2023/09/11 13:02:57;;;;;;;7.20;4.87;;;;;;;31.28;46.20;98902.22;7255082;39;20276;31
2023/09/11 13:08:36;;;;;;;8.30;5.45;;;;;;;31.26;45.32;98896.13;7310365;39;20267;31
2023/09/11 13:13:57;;;;;;;9.10;4.95;;;;;;;31.16;45.38;98899.94;7255388;40;20358;31
2023/09/11 13:19:17;;;;;;;9.80;5.10;;;;;;;31.17;45.60;98893.22;7300713;39;20516;31
2023/09/11 13:24:53;;;;;;;7.55;5.20;;;;;;;31.11;45.19;98880.53;7284402;39;20451;31
2023/09/11 13:30:17;;;;;;;5.93;4.70;;;;;;;31.18;44.56;98877.34;7260871;40;20443;31
2023/09/11 13:35:38;;;;;;;9.22;4.90;;;;;;;31.27;45.46;98879.09;7281958;39;20694;31
2023/09/11 13:41:14;;;;;;;9.55;4.80;;;;;;;31.47;44.62;98868.66;7324387;39;20679;31
2023/09/11 13:46:51;;;;;;;8.02;4.88;;;;;;;31.51;45.28;98861.31;7299419;39;20263;31
2023/09/11 13:52:26;;;;;;;7.90;5.20;;;;;;;31.50;43.79;98856.91;7335084;39;20761;31
2023/09/11 14:03:08;;;;;;;8.32;5.07;;;;;;;31.27;45.26;98842.06;7303332;39;20520;31
2023/09/11 14:08:28;;;;;;;8.20;4.80;;;;;;;31.26;44.48;98840.41;7306554;39;20272;31
2023/09/11 14:13:52;;;;;;;10.43;5.25;;;;;;;31.28;43.80;98836.19;7290704;39;20314;31
2023/09/11 14:19:28;;;;;;;8.88;5.30;;;;;;;31.37;43.69;98841.03;7300417;39;20263;31
2023/09/11 14:24:48;;;;;;;12.60;5.40;;;;;;;31.43;44.51;98840.59;7349734;39;20258;31
2023/09/11 14:30:10;;;;;;;8.00;4.90;;;;;;;31.48;44.82;98834.09;7313907;39;20303;31
2023/09/11 14:35:46;;;;;;;10.20;5.06;;;;;;;31.47;43.29;98821.28;7360958;39;20343;31
2023/09/11 14:41:21;;;;;;;9.95;5.12;;;;;;;31.48;44.72;98812.63;7318363;39;20255;31
2023/09/11 14:46:42;;;;;;;8.60;5.10;;;;;;;31.53;43.99;98808.91;7246478;40;20249;31
2023/09/11 14:52:11;;;;;;;7.00;4.70;;;;;;;31.57;43.32;98809.94;7245899;40;20799;31
2023/09/11 14:57:47;;;;;;;9.08;5.40;;;;;;;31.45;43.14;98795.72;7278097;40;20376;31
2023/09/11 15:08:26;;;;;;;7.43;5.35;;;;;;;31.50;43.42;98793.62;7367667;39;21634;31
2023/09/11 15:14:04;;;;;;;9.20;4.90;;;;;;;31.44;44.77;98786.53;7338316;39;20486;31
2023/09/11 15:19:40;;;;;;;9.76;5.04;;;;;;;31.42;43.64;98783.22;7313524;39;20256;31
2023/09/11 15:30:25;;;;;;;8.35;4.70;;;;;;;31.24;43.37;98776.63;7384848;39;20576;31
2023/09/11 15:36:16;;;;;;;12.05;5.30;;;;;;;31.17;44.69;98778.19;7317523;39;20327;31
2023/09/11 15:41:36;;;;;;;8.90;4.88;;;;;;;31.05;43.47;98778.75;7314918;39;20272;31
2023/09/11 15:52:22;;;;;;;8.82;4.90;;;;;;;30.83;43.69;98771.09;7316258;39;20319;31
2023/09/11 15:57:57;;;;;;;7.68;4.80;;;;;;;30.73;44.68;98770.47;7319463;39;20341;31
2023/09/11 16:03:36;;;;;;;8.45;4.75;;;;;;;30.73;44.86;98770.47;7361328;39;20310;31
2023/09/11 16:09:13;;;;;;;9.80;5.20;;;;;;;30.65;44.35;98768.41;7342237;39;20344;31
2023/09/11 16:14:48;;;;;;;7.77;4.63;;;;;;;30.60;45.27;98765.72;7301974;39;20414;31
2023/09/11 16:20:26;;;;;;;8.00;4.70;;;;;;;30.47;45.38;98766.53;7306523;39;20276;31
2023/09/11 16:25:59;;;;;;;7.64;4.68;;;;;;;30.37;45.89;98765.53;7273325;39;20316;31
2023/09/11 16:36:24;;;;;;;12.63;4.90;;;;;;;30.25;46.48;98770.78;7263252;39;20574;31
2023/09/11 16:42:00;;;;;;;8.57;5.90;;;;;;;30.11;46.58;98772.69;7308323;39;20658;31
2023/09/11 16:52:40;;;;;;;10.95;4.90;;;;;;;29.95;49.85;98769.34;7377890;39;20537;31
2023/09/11 17:03:20;;;;;;;12.80;5.25;;;;;;;29.59;52.91;98768.22;7303396;39;20863;31
2023/09/11 17:08:41;;;;;;;8.00;5.40;;;;;;;29.51;53.04;98766.13;7276576;40;20479;31
2023/09/11 17:14:16;;;;;;;9.40;5.15;;;;;;;29.41;53.07;98767.09;7324926;39;20247;31
2023/09/11 17:19:55;;;;;;;8.32;5.62;;;;;;;29.20;57.42;98771.28;7297217;39;20276;31
2023/09/11 17:25:14;;;;;;;9.35;5.30;;;;;;;28.94;57.30;98768.00;7305666;39;20344;31
2023/09/11 17:30:48;;;;;;;7.40;4.97;;;;;;;28.86;57.94;98773.37;7354307;39;20279;31
2023/09/11 17:36:22;;;;;;;9.70;5.43;;;;;;;28.62;58.45;98776.94;7316656;39;20272;31
2023/09/11 17:41:56;;;;;;;7.65;5.60;;;;;;;28.34;57.72;98779.75;7073047;40;20329;31
2023/09/11 17:47:19;;;;;;;6.90;5.95;;;;;;;28.04;59.00;98775.31;7338935;39;20322;31
2023/09/11 17:52:55;;;;;;;8.70;5.40;;;;;;;27.87;59.52;98783.19;7388524;39;20289;31
2023/09/11 18:03:20;;;;;;;10.00;5.60;;;;;;;27.29;60.57;98781.03;7365759;39;21145;31
2023/09/11 18:14:05;;;;;;;10.98;6.18;;;;;;;27.10;60.54;98779.22;7374104;39;21274;31
2023/09/11 18:19:25;;;;;;;9.95;6.05;;;;;;;26.94;60.95;98781.25;7338555;39;20364;31
2023/09/11 18:25:00;;;;;;;9.45;5.85;;;;;;;26.79;61.05;98781.25;7341359;39;20509;31
2023/09/11 18:30:34;;;;;;;9.83;5.60;;;;;;;26.47;62.01;98787.16;7279452;40;20272;31
2023/09/11 18:36:15;;;;;;;10.43;6.00;;;;;;;26.31;62.54;98800.19;7270232;39;20249;31
2023/09/11 18:41:47;;;;;;;12.36;6.04;;;;;;;26.22;62.18;98801.03;7277509;39;20257;31
2023/09/11 18:47:23;;;;;;;12.93;6.37;;;;;;;26.10;62.40;98811.50;7309281;39;20329;31
2023/09/11 18:52:58;;;;;;;9.18;5.85;;;;;;;25.82;62.71;98807.34;7328075;39;20275;31
2023/09/11 18:58:33;;;;;;;10.40;6.20;;;;;;;25.47;64.74;98802.56;7337224;39;20286;31
2023/09/11 19:04:08;;;;;;;9.35;5.57;;;;;;;25.24;63.08;98797.53;7294221;39;20597;31
2023/09/11 19:14:49;;;;;;;9.85;5.90;;;;;;;25.54;61.95;98803.97;7299400;39;20374;31
2023/09/11 19:20:34;;;;;;;;;;;;;;;;;;;;;
2023/09/11 19:25:48;;;;;;;8.40;5.62;;;;;;;25.63;61.04;98795.16;7246688;40;20350;31
2023/09/11 19:36:48;;;;;;;8.10;5.45;;;;;;;25.58;61.95;98790.50;7330721;39;20535;31
2023/09/11 19:47:28;;;;;;;9.73;6.00;;;;;;;25.19;62.89;98783.75;7345654;39;21101;31
2023/09/11 19:58:13;;;;;;;9.32;5.68;;;;;;;24.67;63.53;98781.81;7353231;39;20266;31
2023/09/11 20:03:38;;;;;;;8.05;7.05;;;;;;;24.70;62.94;98775.78;7403574;39;20238;31
2023/09/11 20:09:15;;;;;;;10.55;5.95;;;;;;;24.67;62.71;98781.81;7368104;39;21341;31
2023/09/11 20:14:51;;;;;;;7.70;5.50;;;;;;;24.44;63.51;98776.75;7360942;39;20301;31
2023/09/11 20:20:25;;;;;;;8.02;5.32;;;;;;;24.34;63.01;98776.69;7336298;39;20256;31
2023/09/11 20:26:14;;;;;;;10.47;5.77;;;;;;;24.35;62.55;98778.34;7279109;40;20284;31
2023/09/11 20:31:22;;;;;;;11.05;5.35;;;;;;;24.30;63.23;98772.81;7226302;40;20347;31
2023/09/11 20:37:11;;;;;;;11.00;5.78;;;;;;;24.17;62.29;98765.84;7221523;39;20730;31
2023/09/11 20:47:35;;;;;;;10.05;5.45;;;;;;;23.91;63.40;98777.72;7288400;39;21462;31
2023/09/11 20:58:15;;;;;;;8.50;5.40;;;;;;;23.73;62.66;98782.53;7340609;39;20274;31
2023/09/11 21:03:50;;;;;;;9.60;5.60;;;;;;;23.73;62.64;98779.78;7425533;39;20329;31
2023/09/11 21:14:30;;;;;;;7.35;4.78;;;;;;;23.50;63.57;98771.84;7378929;39;21398;31
2023/09/11 21:20:18;;;;;;;6.65;5.25;;;;;;;23.40;63.63;98776.38;7339654;39;20279;31
2023/09/11 21:30:44;;;;;;;10.60;6.10;;;;;;;23.17;64.24;98780.25;7319553;39;21237;31
2023/09/11 21:36:05;;;;;;;8.16;5.82;;;;;;;23.15;64.43;98787.97;7316558;39;20260;31
2023/09/11 21:41:25;;;;;;;13.47;6.57;;;;;;;23.17;64.07;98783.84;7291273;39;20280;31
2023/09/11 21:47:01;;;;;;;9.50;5.90;;;;;;;23.13;64.34;98771.69;7315165;39;20267;31
2023/09/11 21:57:24;;;;;;;10.73;5.50;;;;;;;23.17;63.78;98770.09;7386241;39;20263;31
2023/09/11 22:03:01;;;;;;;12.02;5.95;;;;;;;23.13;64.29;98777.19;7395269;39;20338;31
2023/09/11 22:08:21;;;;;;;9.98;5.72;;;;;;;23.08;64.12;98774.37;7361218;39;20254;31
2023/09/11 22:13:56;;;;;;;8.25;6.20;;;;;;;22.88;64.55;98774.16;7341694;39;20244;31
2023/09/11 22:19:36;;;;;;;6.93;5.62;;;;;;;22.81;64.86;98766.13;7361303;39;20405;31
2023/09/11 22:25:10;;;;;;;11.40;5.40;;;;;;;22.75;64.80;98771.81;7329610;39;21100;31
2023/09/11 22:30:30;;;;;;;7.08;5.72;;;;;;;22.63;65.63;98771.06;7308673;39;20250;31
2023/09/11 22:36:08;;;;;;;11.25;6.40;;;;;;;22.43;66.31;98766.94;7263531;40;20399;31
2023/09/11 22:41:43;;;;;;;8.50;6.05;;;;;;;22.34;65.95;98767.63;7303378;39;20301;31
2023/09/11 22:47:04;;;;;;;7.53;5.87;;;;;;;22.23;66.21;98766.69;7288668;40;20426;31
2023/09/11 22:52:40;;;;;;;12.35;5.90;;;;;;;22.06;67.53;98762.28;7346348;39;20601;31
2023/09/11 23:03:18;;;;;;;9.30;5.90;;;;;;;21.94;68.10;98756.88;7321480;39;20275;31
2023/09/11 23:08:53;;;;;;;8.95;5.90;;;;;;;21.86;68.26;98758.09;7331230;39;20259;31
2023/09/11 23:14:13;;;;;;;8.55;5.80;;;;;;;21.79;67.93;98751.97;7374583;39;20239;31
2023/09/11 23:19:51;;;;;;;9.07;6.60;;;;;;;21.69;69.43;98745.47;7361201;39;21127;31
2023/09/11 23:25:27;;;;;;;10.50;5.65;;;;;;;21.62;69.06;98745.66;7310594;39;20335;31
2023/09/11 23:30:48;;;;;;;9.40;6.20;;;;;;;21.50;69.63;98751.19;7328409;39;20540;31
2023/09/11 23:36:20;;;;;;;9.50;5.65;;;;;;;21.37;70.86;98746.03;7380020;39;20246;31
2023/09/11 23:41:56;;;;;;;12.85;6.45;;;;;;;21.48;70.02;98747.03;7312117;39;20240;31
2023/09/11 23:47:16;;;;;;;9.98;6.15;;;;;;;21.43;70.15;98745.03;7306643;39;20322;31
2023/09/11 23:57:59;;;;;;;9.00;6.35;;;;;;;21.45;69.87;98742.06;7332927;39;21114;31
